Thunder radar more information blitzortung!


Radar de pluja more information rain snow radar


Visita la nostra xarxa de llocs de meteo:

Template documentation
and downloads

And another site



No particular awareness of the weather is required.    There are no Weather-warnings

Pagina Historial Weather Underground text

Diari Resum Juny 25, 2017 Unitats:  Imperial    Mètric   Tant
« Previous Dia
SegĂźent Dia »
Diari Setmana Mensual Anual Personalitzada
  Maxima: Minima: Media:
Temperatura: 87.6 °F 70.2 °F 78.8 °F
Punt de rosada: 69.4 °F 62.6 °F 66 °F
Humitat: 86 % 50 % 66 %
Wind Speed: 10.4 mph 0 mph 3.3 mph
RĂ fegues de vent: 10.4 mph - -
Vent:- - South
Pression baro: 30.1 in 29.8 in -
Precipitacions: 0 in    
Historical Graphs
 
 
Dades de taula per Juny 25, 2017
Temps Temperatura Punt de rosada Pression baro Vent Wind Speed RĂ fegues de vent Humitat Rainfall Rate (Hourly)
00:02 73.9 °F 63.9 °F 29.9 in SW 2.3 mph 2.3 mph 71 % 0 in
00:07 73.9 °F 63.9 °F 29.9 in WSW 2.3 mph 2.3 mph 71 % 0 in
05:20 73.6 °F 67.5 °F 30 in ESE 3 mph 6 mph 81 % 0 in
05:30 73.8 °F 67.6 °F 30 in ESE 3 mph 4 mph 81 % 0 in
05:40 73.8 °F 67.6 °F 30 in East 2 mph 5 mph 81 % 0 in
05:50 73.8 °F 67.6 °F 30 in East 6 mph 6 mph 81 % 0 in
06:00 74.1 °F 67.6 °F 30 in East 5 mph 6 mph 80 % 0 in
06:10 74.3 °F 67.6 °F 30 in East 1 mph 4 mph 80 % 0 in
06:20 74.5 °F 67.8 °F 30 in ESE 3 mph 5 mph 80 % 0 in
06:30 75.2 °F 67.8 °F 30 in SE 1 mph 2 mph 78 % 0 in
06:40 75.2 °F 67.8 °F 30 in ESE 2 mph 5 mph 78 % 0 in
11:47 75.9 °F 68.5 °F 30 in SSW 1.2 mph   78 % 0 in
11:52 75.9 °F 68.2 °F 30 in ESE 3.5 mph 3.5 mph 77 % 0 in
11:57 76.1 °F 68.4 °F 30 in ESE 2.9 mph   77 % 0 in
12:02 75.9 °F 68.2 °F 30.1 in East 3.5 mph 3.5 mph 77 % 0 in
12:07 75.9 °F 68.2 °F 30.1 in East 4.9 mph 4.9 mph 77 % 0 in
12:12 76.1 °F 68 °F 30.1 in South 4.6 mph 4.6 mph 76 % 0 in
12:17 76.5 °F 68.4 °F 30.1 in ESE 5.9 mph 5.9 mph 76 % 0 in
12:22 76.8 °F 68.4 °F 30.1 in SE 3.5 mph 3.5 mph 75 % 0 in
12:27 76.6 °F 68.2 °F 30.1 in ESE 3.5 mph 3.5 mph 75 % 0 in
12:32 77 °F 68.2 °F 30 in NE 2.3 mph 2.3 mph 74 % 0 in
12:37 77.2 °F 67.8 °F 30 in ESE 5.8 mph 5.8 mph 73 % 0 in
12:42 77.5 °F 68.2 °F 30 in ENE 6.9 mph 6.9 mph 73 % 0 in
12:47 78.3 °F 68.5 °F 30 in South 3.5 mph 3.5 mph 72 % 0 in
12:52 77.9 °F 67.6 °F 30 in NE 4.6 mph 4.6 mph 71 % 0 in
12:57 77.5 °F 67.5 °F 30 in NW 3.5 mph 3.5 mph 71 % 0 in
13:02 77.7 °F 67.6 °F 30 in South 3.5 mph 3.5 mph 71 % 0 in
13:07 78.1 °F 67.8 °F 30 in SSE 2 mph   71 % 0 in
13:12 79.2 °F 68.9 °F 30 in South 2.3 mph 2.3 mph 71 % 0 in
13:17 80.1 °F 69.4 °F 30 in SW 2.4 mph 2.4 mph 70 % 0 in
13:22 80.2 °F 69.1 °F 30 in SW 3.5 mph 3.5 mph 69 % 0 in
13:27 80.1 °F 68.5 °F 30 in SW 4.6 mph 4.6 mph 68 % 0 in
13:32 80.6 °F 68.5 °F 30 in SW 3.8 mph 3.8 mph 67 % 0 in
13:37 80.6 °F 68.2 °F 30 in West 5.8 mph 5.8 mph 66 % 0 in
13:42 80.2 °F 67.8 °F 30 in East 2.6 mph 2.6 mph 66 % 0 in
13:47 79.7 °F 67.3 °F 30 in East 4.6 mph 4.6 mph 66 % 0 in
13:52 80.4 °F 68 °F 30 in ESE 3.5 mph 3.5 mph 66 % 0 in
13:57 81.7 °F 68.7 °F 30 in South 2.3 mph 2.3 mph 65 % 0 in
14:02 81.9 °F 68.5 °F 30 in WSW 3.8 mph 3.8 mph 64 % 0 in
14:07 82.2 °F 68.7 °F 30 in WSW 1.2 mph 1.2 mph 64 % 0 in
14:12 82.2 °F 67.8 °F 30 in South 4.6 mph 4.6 mph 62 % 0 in
14:17 83.1 °F 69.3 °F 30 in SW 3.5 mph 3.5 mph 63 % 0 in
14:22 83.3 °F 68.9 °F 30 in SSE 6.9 mph 6.9 mph 62 % 0 in
14:27 82.9 °F 68.5 °F 30 in SW 2.3 mph 2.3 mph 62 % 0 in
14:32 82.8 °F 68.4 °F 30 in South 4.6 mph 4.6 mph 62 % 0 in
14:37 82.9 °F 68.5 °F 30 in SSE 3.5 mph 3.5 mph 62 % 0 in
14:42 82.9 °F 68.2 °F 30 in SW 5.8 mph 5.8 mph 61 % 0 in
14:47 83.5 °F 68.5 °F 30 in SW 4.6 mph 4.6 mph 61 % 0 in
14:52 84.4 °F 68.5 °F 30 in WSW 3.5 mph 3.5 mph 59 % 0 in
14:57 85.1 °F 69.3 °F 30 in SW 2.9 mph 2.9 mph 59 % 0 in
15:02 84.2 °F 67.8 °F 30 in SW 4.6 mph 4.6 mph 58 % 0 in
15:07 85.1 °F 68.7 °F 30 in SSW 4.6 mph 4.6 mph 58 % 0 in
15:12 84.7 °F 67.3 °F 30 in South 2.3 mph 2.4 mph 56 % 0 in
15:17 84.7 °F 67.8 °F 30 in SSW 2.3 mph 2.3 mph 57 % 0 in
15:22 85.1 °F 68.2 °F 30 in South 3.5 mph 3.5 mph 57 % 0 in
15:27 85.1 °F 68.2 °F 30 in SW 5.8 mph 5.8 mph 57 % 0 in
15:32 84.2 °F 67.3 °F 30 in SSW 2.3 mph 2.4 mph 57 % 0 in
15:37 84.7 °F 67.8 °F 30 in SW 6.9 mph 6.9 mph 57 % 0 in
15:42 84.9 °F 68 °F 30 in WSW 10.4 mph 10.4 mph 57 % 0 in
15:47 85.1 °F 68.2 °F 30 in SW 3.5 mph 3.5 mph 57 % 0 in
15:52 85.3 °F 67.8 °F 30 in West 8.1 mph 8.1 mph 56 % 0 in
15:57 86 °F 68 °F 30 in WSW 8.1 mph 8.1 mph 55 % 0 in
16:02 86.2 °F 68.2 °F 30 in South 4.6 mph 4.6 mph 55 % 0 in
16:07 85.8 °F 67.8 °F 30 in SSW 9.2 mph 9.2 mph 55 % 0 in
16:12 85.1 °F 67.1 °F 29.9 in SSE 3.5 mph 3.5 mph 55 % 0 in
16:17 84.9 °F 66.9 °F 29.9 in SW 3.5 mph 3.5 mph 55 % 0 in
16:22 84 °F 66.6 °F 29.9 in WSW 4.6 mph 4.6 mph 56 % 0 in
16:27 84.2 °F 66.4 °F 29.9 in WSW 2.9 mph 2.9 mph 55 % 0 in
16:32 84.2 °F 66.7 °F 29.9 in SSW 2.3 mph 2.3 mph 56 % 0 in
16:37 84.2 °F 66.4 °F 29.9 in SW 3.6 mph 3.6 mph 55 % 0 in
16:42 84.7 °F 66.7 °F 29.9 in SSW 3.5 mph 3.5 mph 55 % 0 in
16:47 85.5 °F 67.5 °F 29.9 in SW 3.8 mph 3.8 mph 55 % 0 in
16:52 86.4 °F 67.8 °F 29.9 in West 2.4 mph 2.4 mph 54 % 0 in
16:57 86.9 °F 68.4 °F 29.9 in South 5.8 mph 5.8 mph 54 % 0 in
17:02 87.3 °F 68 °F 29.9 in SW 3.6 mph 3.6 mph 53 % 0 in
17:07 87.6 °F 68.4 °F 29.9 in SW 4.6 mph 4.6 mph 53 % 0 in
17:12 87.3 °F 67.5 °F 29.9 in SW 5.8 mph 5.8 mph 52 % 0 in
17:17 87.3 °F 66.9 °F 29.9 in SW 2.3 mph 2.3 mph 51 % 0 in
17:22 86.7 °F 66.4 °F 29.9 in SW 3.5 mph 3.5 mph 51 % 0 in
17:27 86 °F 65.8 °F 29.9 in SW 2.3 mph 2.3 mph 51 % 0 in
17:32 85.8 °F 65.7 °F 29.9 in SSW 4.3 mph 4.3 mph 51 % 0 in
17:37 85.5 °F 64.8 °F 29.9 in West 4.6 mph 4.6 mph 50 % 0 in
17:38 85.5 °F 64.8 °F 29.9 in SE 4.6 mph 4.6 mph 50 % 0 in
17:43 84.7 °F 64.6 °F 29.9 in ESE 4.7 mph 4.7 mph 51 % 0 in
17:48 84.7 °F 64.6 °F 29.9 in SW 2 mph 2 mph 51 % 0 in
17:53 84.9 °F 64.8 °F 29.9 in SW 8.1 mph 8.1 mph 51 % 0 in
17:54 84.7 °F 64 °F 29.9 in WSW 8.1 mph 8.1 mph 50 % 0 in
17:59 84.9 °F 64.8 °F 29.9 in SW 4.6 mph 4.6 mph 51 % 0 in
18:04 85.3 °F 65.1 °F 29.9 in SSW 8.1 mph 8.1 mph 51 % 0 in
18:09 84.7 °F 64.6 °F 29.9 in SSW 6.9 mph 6.9 mph 51 % 0 in
18:14 84.4 °F 63.7 °F 29.9 in West 5.8 mph 5.8 mph 50 % 0 in
18:19 84.6 °F 63.9 °F 29.9 in WSW 3.8 mph 3.8 mph 50 % 0 in
18:24 84.7 °F 64 °F 29.9 in SW 4.6 mph 4.6 mph 50 % 0 in
18:29 84.6 °F 63.9 °F 29.9 in WSW 4.6 mph 4.6 mph 50 % 0 in
18:34 84.4 °F 63.7 °F 29.9 in West 4.6 mph 4.6 mph 50 % 0 in
18:39 84 °F 63.9 °F 29.9 in West 3.8 mph 3.8 mph 51 % 0 in
18:44 83.8 °F 63.1 °F 29.9 in WSW 2.3 mph   50 % 0 in
18:49 83.8 °F 63.1 °F 29.9 in WSW 3.5 mph 3.5 mph 50 % 0 in
18:54 83.5 °F 63 °F 29.9 in SW 3.5 mph 3.5 mph 50 % 0 in
18:59 83.3 °F 63.3 °F 29.9 in SW 2.4 mph 2.4 mph 51 % 0 in
19:04 83.3 °F 63.3 °F 29.9 in WSW 4.9 mph 4.9 mph 51 % 0 in
19:09 82.9 °F 63 °F 29.9 in SW 5.8 mph 5.8 mph 51 % 0 in
19:10 73.8 °F 66 °F 29.9 in ENE 2 mph 3 mph 77 % 0 in
19:14 82.8 °F 63.3 °F 29.8 in SSW 3.5 mph 3.5 mph 52 % 0 in
19:19 82.2 °F 62.8 °F 29.8 in SW 4.6 mph 4.6 mph 52 % 0 in
19:20 73.4 °F 65.5 °F 29.9 in ESE 2 mph 2 mph 76 % 0 in
19:24 82 °F 63.1 °F 29.8 in SW 4 mph 4 mph 53 % 0 in
19:29 81.5 °F 62.8 °F 29.9 in SSW 4.6 mph 4.6 mph 53 % 0 in
19:30 73 °F 65.5 °F 29.9 in SSW 1 mph 2 mph 77 % 0 in
19:34 81.3 °F 63.1 °F 29.9 in WSW 2.4 mph   54 % 0 in
19:39 81.1 °F 63 °F 29.9 in SSW 5.8 mph 5.8 mph 54 % 0 in
19:40 73 °F 65.5 °F 29.9 in SW 2 mph 4 mph 77 % 0 in
19:44 80.8 °F 62.6 °F 29.9 in SSW 4.6 mph 4.6 mph 54 % 0 in
19:49 80.8 °F 62.6 °F 29.9 in SW 4.6 mph 4.6 mph 54 % 0 in
19:50 72.9 °F 65.7 °F 29.9 in Calm   2 mph 78 % 0 in
19:54 80.4 °F 62.8 °F 29.9 in SW 4.6 mph 4.6 mph 55 % 0 in
19:59 80.2 °F 63.1 °F 29.9 in SW 4.3 mph 4.3 mph 56 % 0 in
20:00 72.9 °F 66 °F 29.9 in SW 2 mph 2 mph 79 % 0 in
20:04 80.1 °F 63 °F 29.9 in SSW 4.6 mph 4.6 mph 56 % 0 in
20:09 79.7 °F 62.6 °F 29.9 in SW 5.8 mph 5.8 mph 56 % 0 in
20:10 72.9 °F 65.7 °F 29.9 in SW 1 mph 2 mph 78 % 0 in
20:14 79.5 °F 63 °F 29.9 in West 4.6 mph 4.6 mph 57 % 0 in
20:19 79.5 °F 63 °F 29.9 in SW 2.4 mph 2.4 mph 57 % 0 in
20:20 72.7 °F 65.8 °F 29.9 in Calm   2 mph 79 % 0 in
20:24 79.5 °F 63.3 °F 29.9 in SW 2.3 mph 2.3 mph 58 % 0 in
20:29 79.2 °F 63.1 °F 29.9 in SSW 2.3 mph 2.3 mph 58 % 0 in
20:30 72.5 °F 65.7 °F 29.9 in WSW 1 mph 2 mph 79 % 0 in
20:34 79.2 °F 63.1 °F 29.9 in WSW 1.2 mph   58 % 0 in
20:39 79 °F 63.3 °F 29.9 in South 2.3 mph   59 % 0 in
20:40 72.5 °F 65.7 °F 29.9 in WSW 2 mph 2 mph 79 % 0 in
20:44 78.8 °F 63.3 °F 29.9 in Calm     59 % 0 in
20:49 78.6 °F 63.1 °F 29.9 in SW 2.3 mph 2.3 mph 59 % 0 in
20:50 72.5 °F 66 °F 29.9 in West 1 mph 2 mph 80 % 0 in
20:54 78.3 °F 63.1 °F 29.9 in SW 2.3 mph 2.3 mph 60 % 0 in
20:59 78.1 °F 63.1 °F 29.9 in WSW 1.4 mph   60 % 0 in
21:00 72.5 °F 66 °F 29.9 in Calm   1 mph 80 % 0 in
21:04 77.9 °F 63 °F 29.9 in SW 1.2 mph   60 % 0 in
21:09 77.7 °F 63.1 °F 29.9 in Calm     61 % 0 in
21:10 72.5 °F 66.4 °F 29.9 in Calm   1 mph 81 % 0 in
21:14 77.2 °F 64 °F 29.9 in ESE 3.5 mph 3.5 mph 64 % 0 in
21:19 77 °F 64.2 °F 29.9 in East 2.3 mph 2.3 mph 65 % 0 in
21:20 72.3 °F 66.6 °F 29.9 in ENE 1 mph 2 mph 82 % 0 in
21:24 76.6 °F 64.9 °F 29.9 in ENE 3.5 mph 3.5 mph 67 % 0 in
21:29 76.3 °F 64.9 °F 29.9 in ENE 4.6 mph 4.6 mph 68 % 0 in
21:30 72 °F 66.2 °F 29.9 in Calm   2 mph 82 % 0 in
21:34 76.1 °F 64.8 °F 29.9 in ENE 4.6 mph 4.6 mph 68 % 0 in
21:39 75.7 °F 64.8 °F 29.9 in East 4.6 mph 4.6 mph 69 % 0 in
21:40 71.8 °F 66 °F 29.9 in Calm   2 mph 82 % 0 in
21:44 75.6 °F 65.1 °F 29.9 in East 4.6 mph 4.6 mph 70 % 0 in
21:49 75.4 °F 65.7 °F 29.9 in ENE 5.8 mph 5.8 mph 72 % 0 in
21:50 71.2 °F 65.5 °F 29.9 in SW 2 mph 3 mph 82 % 0 in
21:54 75.2 °F 65.7 °F 29.9 in ENE 8.1 mph 8.1 mph 72 % 0 in
21:56 75.2 °F 65.1 °F 29.9 in ESE 6.9 mph 6.9 mph 71 % 0 in
22:00 71.2 °F 65.5 °F 29.9 in WSW 2 mph 2 mph 82 % 0 in
22:01 75 °F 66.2 °F 29.9 in ENE 5.8 mph 5.8 mph 74 % 0 in
22:06 74.8 °F 66 °F 29.9 in ESE 3.5 mph 3.5 mph 74 % 0 in
22:10 71.2 °F 65.8 °F 29.9 in WSW 1 mph 2 mph 83 % 0 in
22:11 74.8 °F 66 °F 29.9 in East 2.4 mph 2.4 mph 74 % 0 in
22:16 74.8 °F 65.7 °F 29.9 in Calm     73 % 0 in
22:20 71.2 °F 65.8 °F 29.9 in WSW 1 mph 2 mph 83 % 0 in
22:21 74.8 °F 66 °F 29.9 in South 2.3 mph   74 % 0 in
22:26 74.8 °F 65.7 °F 29.9 in WSW 1.2 mph 1.4 mph 73 % 0 in
22:30 71.2 °F 65.8 °F 29.9 in WSW 2 mph 3 mph 83 % 0 in
22:31 74.8 °F 65.7 °F 29.9 in SW 2.3 mph 2.3 mph 73 % 0 in
22:36 74.7 °F 65.5 °F 29.9 in WSW 2.3 mph 2.3 mph 73 % 0 in
22:40 71.4 °F 66.4 °F 29.9 in Calm   2 mph 84 % 0 in
22:41 74.7 °F 65.8 °F 29.9 in Calm     74 % 0 in
22:46 74.8 °F 66 °F 29.9 in NNE 1.2 mph   74 % 0 in
22:50 71.2 °F 66.6 °F 29.9 in ESE 2 mph 2 mph 85 % 0 in
22:51 74.8 °F 66 °F 29.9 in West 1.2 mph   74 % 0 in
22:56 74.8 °F 66 °F 29.9 in West 2.3 mph 2.3 mph 74 % 0 in
23:00 70.7 °F 65.7 °F 29.9 in South 2 mph 3 mph 84 % 0 in
23:01 74.8 °F 66 °F 29.9 in Calm     74 % 0 in
23:06 74.8 °F 66 °F 29.9 in NNW 2.3 mph 2.3 mph 74 % 0 in
23:10 70.3 °F 65.7 °F 29.8 in SW 2 mph 2 mph 85 % 0 in
23:11 74.8 °F 66 °F 29.9 in WNW 1.2 mph   74 % 0 in
23:16 74.7 °F 65.8 °F 29.9 in East 1.2 mph 1.2 mph 74 % 0 in
23:20 70.2 °F 65.5 °F 29.8 in SW 1 mph 2 mph 85 % 0 in
23:21 74.7 °F 65.8 °F 29.9 in ENE 1.6 mph   74 % 0 in
23:26 74.7 °F 65.8 °F 29.9 in East 5.8 mph 5.8 mph 74 % 0 in
23:30 70.2 °F 65.5 °F 29.9 in SW 1 mph 2 mph 85 % 0 in
23:31 74.5 °F 65.7 °F 29.9 in WSW 2.3 mph 2.3 mph 74 % 0 in
23:36 74.5 °F 65.7 °F 29.9 in ENE 1.2 mph   74 % 0 in
23:40 70.2 °F 65.8 °F 29.8 in Calm   2 mph 86 % 0 in
23:41 74.5 °F 66 °F 29.9 in NE 2.4 mph 2.4 mph 75 % 0 in
23:46 74.3 °F 65.8 °F 29.9 in NE 1.2 mph 1.2 mph 75 % 0 in
23:50 70.3 °F 65.7 °F 29.8 in West 2 mph 3 mph 85 % 0 in
23:51 73.9 °F 65.8 °F 29.9 in ENE 2.3 mph 2.3 mph 76 % 0 in
23:56 73.9 °F 65.8 °F 29.9 in NE 1.2 mph   76 % 0 in
Meteo Sesrovires
Elogis d' Weather Underground - 3.5 mb

Guio original per  Jim McMurry - jmcmurry@mwt.net Adaptat per a la plantilla per  Wim van der Kuil - Leuven-Template.eu

Trobareu la nostra informacio del temps tambe a:

Weather Underground

AWEKAS